Budd Lake, NJ (07828)

10:54 PM EDT on July 26, 2016 (GMT -0400)
King Street | | Change Station

Elev 817 ft 40.90 °N, 74.71 °W | Updated 4 minutes ago

Clear
Clear
69.6 °F
Feels Like 69.6 °F
N
0.0
Wind Variable Wind from West

Today
High -- | Low -- °F
--% Chance of Precip.
Yesterday
High -- | Low -- °F
Precip. -- in
Pressure 29.90 in
Visibility 10.0 miles
Clouds Clear
Dew Point 65 °F
Humidity 86%
Rainfall 0.00 in
Snow Depth Not available.
5:50 AM 8:20 PM
Waning Gibbous, 48% visible
METAR KSMQ 270153Z AUTO 35003KT 10SM CLR 26/19 A2990 RMK AO2 SLP125 T02610194
Pressure 29.90 in
Visibility 10.0 miles
Clouds Clear
Dew Point 65 °F
Humidity 86%
Rainfall 0.00 in
Snow Depth Not available.
5:50 AM 8:20 PM
Waning Gibbous, 48% visible
METAR KSMQ 270153Z AUTO 35003KT 10SM CLR 26/19 A2990 RMK AO2 SLP125 T02610194

10-Day Weather Forecast

Almanac

Astronomy

Jul. 26, 2016 Rise Set
Actual Time
Civil Twilight
Nautical Twilight
Astronomical Twilight
Moon
Length of Visible Light
Length of Day
Tomorrow will be .
, % of the Moon is Illuminated

Today's Extremes

State Highs State Lows

Community

WunderPhotos

Upload Photos

1,927,784 photos uploaded!

WunderBlog® & News

Nearby

Air Quality

  Air Quality AQ Index Pollutant
Not available.

Snow Depth

Station Depth Elevation

Earthquake Activity

City Distance Mag. Time & Date
Minimum magnitude displayed is 2.5.

Coastal Water Temperatures

Place Temperature

Stations

Nearby Weather Stations

Station Location Temp. Windchill Dew Point Humidity Wind Precip. Elev Updated Type
                   

Watches & Warnings

There are currently no watches in effect.